Time;durP1;ratioP1;P1;durP2;ratioP2;P2;SDS_P1;SDS_P2;PMS_P1;PMS_P2;Temp;Humidity;BMP_temperature;BMP_pressure;BME280_temperature;BME280_humidity;BME280_pressure;Samples;Min_cycle;Max_cycle;Signal;HPM_P1;HPM_P2
2022/12/22 03:28:18;;;;;;;7.50;6.90;;;13.50;99.90;;;;;;5052038;28;20044;-72
2022/12/22 03:30:43;;;;;;;7.72;7.13;;;13.50;99.90;;;;;;5051865;28;20499;-73
2022/12/22 03:33:09;;;;;;;7.25;6.65;;;13.50;99.90;;;;;;5051882;28;20577;-72
2022/12/22 03:35:35;;;;;;;6.30;5.80;;;13.60;99.90;;;;;;5051939;28;20100;-72
2022/12/22 03:38:03;;;;;;;6.32;5.55;;;13.50;99.90;;;;;;5050409;28;20057;-72
2022/12/22 03:40:30;;;;;;;6.85;6.30;;;13.50;99.90;;;;;;5051632;28;20025;-72
2022/12/22 03:48:38;;;;;;;5.68;5.28;;;13.50;99.90;;;;;;5055354;28;20390;-73
2022/12/22 03:51:04;;;;;;;5.88;5.28;;;13.50;99.90;;;;;;5055525;28;20021;-73
2022/12/22 03:53:29;;;;;;;5.30;4.90;;;13.50;99.90;;;;;;5055064;28;20371;-72
2022/12/22 03:55:55;;;;;;;5.00;4.60;;;13.50;99.90;;;;;;5055087;28;20025;-72
2022/12/22 03:58:20;;;;;;;5.47;5.07;;;13.50;99.90;;;;;;5070569;28;20032;-72
2022/12/22 04:00:46;;;;;;;4.18;3.88;;;13.50;99.90;;;;;;5055147;28;20025;-72
2022/12/22 04:03:12;;;;;;;5.32;4.85;;;13.50;99.90;;;;;;5055037;28;20079;-72
2022/12/22 04:05:38;;;;;;;5.32;4.93;;;13.50;99.90;;;;;;5055089;28;20219;-72
2022/12/22 04:08:04;;;;;;;5.93;5.43;;;13.50;99.90;;;;;;5054738;28;20513;-72
2022/12/22 04:13:14;;;;;;;5.40;5.00;;;13.50;99.90;;;;;;5055157;28;20044;-72
2022/12/22 04:15:39;;;;;;;6.50;6.00;;;13.50;99.90;;;;;;5055134;28;20025;-72
2022/12/22 04:18:05;;;;;;;6.40;5.90;;;13.40;99.90;;;;;;5054805;28;20374;-72
2022/12/22 04:20:31;;;;;;;6.65;6.13;;;13.40;99.90;;;;;;5054769;28;20029;-72
2022/12/22 04:22:56;;;;;;;6.47;5.97;;;13.50;99.90;;;;;;5054226;28;20079;-73
2022/12/22 04:25:23;;;;;;;6.95;6.35;;;13.40;99.90;;;;;;5054895;28;20029;-72
2022/12/22 04:27:48;;;;;;;6.90;6.32;;;13.50;99.90;;;;;;5054687;28;20059;-72
2022/12/22 04:30:15;;;;;;;7.97;6.32;;;13.50;99.90;;;;;;5054532;28;20056;-72
2022/12/22 04:32:40;;;;;;;7.60;7.00;;;13.50;99.90;;;;;;5054542;28;20021;-72
2022/12/22 04:35:07;;;;;;;7.35;6.75;;;13.50;99.90;;;;;;5054442;28;20436;-73
2022/12/22 04:37:33;;;;;;;7.60;7.00;;;13.50;99.90;;;;;;5052473;28;20021;-73
2022/12/22 04:39:59;;;;;;;7.50;6.90;;;13.50;99.90;;;;;;5047330;28;20028;-73
2022/12/22 04:42:25;;;;;;;6.97;6.38;;;13.50;99.90;;;;;;5033534;28;20268;-73
2022/12/22 04:44:50;;;;;;;7.10;6.50;;;13.50;99.90;;;;;;5031429;28;20036;-73
2022/12/22 04:47:16;;;;;;;7.32;6.68;;;13.40;99.90;;;;;;5033430;28;20028;-73
2022/12/22 04:49:42;;;;;;;8.57;7.78;;;13.50;99.90;;;;;;5034060;28;20072;-73
2022/12/22 04:52:08;;;;;;;7.55;6.85;;;13.50;99.90;;;;;;5049431;28;20489;-73
2022/12/22 04:54:33;;;;;;;8.25;7.55;;;13.50;99.90;;;;;;5033878;28;20048;-73
2022/12/22 04:56:59;;;;;;;8.85;8.05;;;13.50;99.90;;;;;;5034212;28;20133;-73
2022/12/22 04:59:25;;;;;;;9.65;8.75;;;13.50;99.90;;;;;;5034016;28;20483;-73
2022/12/22 05:01:51;;;;;;;11.23;9.35;;;13.50;99.90;;;;;;5034124;28;20032;-73
2022/12/22 05:04:16;;;;;;;11.02;9.93;;;13.50;99.90;;;;;;5033516;28;20454;-73
2022/12/22 05:06:42;;;;;;;12.90;11.70;;;13.50;99.90;;;;;;5034110;28;20442;-73
2022/12/22 05:09:09;;;;;;;13.45;12.02;;;13.50;99.90;;;;;;5033960;28;20091;-73
2022/12/22 05:11:35;;;;;;;12.60;11.30;;;13.50;99.90;;;;;;5033886;28;20021;-72
2022/12/22 05:14:00;;;;;;;15.05;12.50;;;13.50;99.90;;;;;;5033783;28;20034;-73
2022/12/22 05:16:26;;;;;;;14.25;12.80;;;13.50;99.90;;;;;;5033744;28;20025;-72
2022/12/22 05:18:52;;;;;;;14.30;12.73;;;13.50;99.90;;;;;;5033430;28;20021;-72
2022/12/22 05:21:20;;;;;;;13.70;12.30;;;13.50;99.90;;;;;;5033810;28;20029;-72
2022/12/22 05:23:46;;;;;;;15.52;13.90;;;13.50;99.90;;;;;;5033479;28;20029;-73
2022/12/22 05:26:13;;;;;;;14.77;13.38;;;13.50;99.90;;;;;;5033574;28;20075;-73
2022/12/22 05:28:42;;;;;;;16.85;13.95;;;13.50;99.90;;;;;;5033569;28;20053;-73
2022/12/22 05:31:12;;;;;;;15.15;13.65;;;13.50;99.90;;;;;;5033549;28;20021;-72
2022/12/22 05:33:38;;;;;;;15.88;14.27;;;13.50;99.90;;;;;;5033001;28;20037;-73
2022/12/22 05:36:04;;;;;;;15.80;14.20;;;13.50;99.90;;;;;;5033577;28;20021;-73
2022/12/22 05:38:29;;;;;;;22.08;19.70;;;13.50;99.90;;;;;;5033318;28;20074;-80
2022/12/22 05:40:55;;;;;;;28.23;22.00;;;13.50;99.90;;;;;;5033283;28;20021;-79
2022/12/22 05:43:21;;;;;;;29.60;23.70;;;13.30;99.90;;;;;;5033112;28;20042;-79
2022/12/22 05:45:46;;;;;;;28.17;22.85;;;12.90;99.90;;;;;;5033223;28;20030;-80
2022/12/22 05:48:13;;;;;;;30.05;22.98;;;12.70;99.90;;;;;;5032864;28;20072;-79
2022/12/22 05:50:39;;;;;;;28.40;22.67;;;12.80;99.90;;;;;;5033199;28;20386;-80
2022/12/22 05:53:06;;;;;;;29.63;22.95;;;12.70;99.90;;;;;;5033165;28;20028;-79
2022/12/22 05:55:33;;;;;;;28.58;21.88;;;12.60;99.90;;;;;;5031700;28;20513;-79
2022/12/22 05:58:02;;;;;;;29.85;23.30;;;12.70;99.90;;;;;;5033032;28;20037;-80
2022/12/22 06:00:29;;;;;;;28.17;22.23;;;12.60;99.90;;;;;;5033042;28;20033;-79
2022/12/22 06:02:54;;;;;;;29.02;22.35;;;12.50;99.90;;;;;;5032377;28;20014;-80
2022/12/22 06:05:20;;;;;;;27.20;22.13;;;12.60;99.90;;;;;;5031014;28;20498;-79
2022/12/22 06:07:45;;;;;;;29.80;22.77;;;12.60;99.90;;;;;;5031056;28;20025;-80
2022/12/22 06:10:12;;;;;;;32.08;23.30;;;12.50;99.90;;;;;;5032545;28;20497;-79
2022/12/22 06:12:38;;;;;;;29.27;23.27;;;12.50;99.90;;;;;;5032780;28;20116;-79
2022/12/22 06:15:05;;;;;;;27.55;21.85;;;12.50;99.90;;;;;;5032233;28;20522;-80
2022/12/22 06:17:30;;;;;;;26.52;21.42;;;12.50;99.90;;;;;;5032682;28;20022;-79
2022/12/22 06:19:56;;;;;;;24.48;20.67;;;12.30;99.90;;;;;;5047773;28;20025;-80
2022/12/22 06:22:21;;;;;;;24.52;20.20;;;12.30;99.90;;;;;;5048186;28;20021;-79
2022/12/22 06:24:47;;;;;;;24.92;21.48;;;12.30;99.90;;;;;;5047673;28;20037;-80
2022/12/22 06:27:14;;;;;;;27.48;22.67;;;12.30;99.90;;;;;;5047931;28;20136;-80
2022/12/22 06:29:40;;;;;;;27.85;21.67;;;12.30;99.90;;;;;;5032385;28;20104;-79
2022/12/22 06:32:05;;;;;;;28.90;22.30;;;12.30;99.90;;;;;;5032482;28;20032;-80
2022/12/22 06:34:31;;;;;;;29.33;23.33;;;12.30;99.90;;;;;;5032229;28;20026;-80
2022/12/22 06:36:56;;;;;;;30.30;23.50;;;12.20;99.90;;;;;;5032606;28;20466;-80
2022/12/22 06:39:22;;;;;;;33.50;24.42;;;12.20;99.90;;;;;;5032338;28;20540;-79
2022/12/22 06:44:31;;;;;;;34.97;25.27;;;12.10;99.90;;;;;;5032315;28;20091;-79
2022/12/22 06:46:57;;;;;;;32.25;25.58;;;12.10;99.90;;;;;;5032128;28;20049;-80
2022/12/22 06:49:23;;;;;;;33.03;25.02;;;12.20;99.90;;;;;;5032292;28;20026;-75
2022/12/22 06:51:48;;;;;;;33.17;24.55;;;12.00;99.90;;;;;;5037057;28;20033;-77
2022/12/22 06:54:14;;;;;;;23.73;18.20;;;12.10;99.90;;;;;;5047591;28;20096;-78
2022/12/22 06:56:40;;;;;;;29.85;23.80;;;12.30;99.90;;;;;;5046330;28;20022;-77
2022/12/22 06:59:05;;;;;;;31.65;25.60;;;12.60;99.90;;;;;;5043986;28;20029;-76
2022/12/22 07:01:31;;;;;;;35.13;26.73;;;12.30;99.90;;;;;;5036740;28;20075;-76
2022/12/22 07:03:56;;;;;;;29.25;20.00;;;12.20;99.90;;;;;;5045983;28;20064;-73
2022/12/22 07:06:22;;;;;;;25.08;19.25;;;12.20;99.90;;;;;;5045810;28;20540;-73
2022/12/22 07:08:47;;;;;;;25.83;18.98;;;12.30;99.90;;;;;;5040238;28;20501;-72
2022/12/22 07:11:14;;;;;;;28.45;20.30;;;12.50;99.90;;;;;;5038075;28;20025;-73
2022/12/22 07:13:39;;;;;;;24.70;19.17;;;12.60;99.90;;;;;;5045884;28;20025;-73
2022/12/22 07:16:07;;;;;;;25.67;19.52;;;12.60;99.90;;;;;;5042914;28;20112;-73
2022/12/22 07:18:38;;;;;;;27.00;20.17;;;12.70;99.90;;;;;;5042385;28;20249;-74
2022/12/22 07:21:06;;;;;;;23.77;19.20;;;12.70;99.90;;;;;;5046984;28;20013;-73
2022/12/22 07:23:33;;;;;;;27.38;20.88;;;12.70;99.90;;;;;;5046966;28;20032;-74
2022/12/22 07:25:59;;;;;;;26.50;21.30;;;12.70;99.90;;;;;;5048209;28;20036;-73
2022/12/22 07:28:24;;;;;;;26.40;21.17;;;12.70;99.90;;;;;;5054511;28;20029;-74
2022/12/22 07:30:50;;;;;;;27.48;20.45;;;12.70;99.90;;;;;;5051525;28;20020;-73
2022/12/22 07:33:16;;;;;;;26.63;20.33;;;12.70;99.90;;;;;;5051130;28;20013;-74
2022/12/22 07:35:42;;;;;;;26.10;19.75;;;12.70;99.90;;;;;;5048897;28;20044;-73
2022/12/22 07:38:07;;;;;;;22.90;19.20;;;12.70;99.90;;;;;;5053360;28;20021;-74
2022/12/22 07:40:33;;;;;;;21.15;16.15;;;12.70;99.90;;;;;;5045980;28;20139;-74
2022/12/22 07:42:59;;;;;;;23.30;18.20;;;12.70;99.90;;;;;;5045415;28;20474;-73
2022/12/22 07:45:26;;;;;;;25.00;18.48;;;12.70;99.90;;;;;;5050162;28;20029;-73
2022/12/22 07:47:58;;;;;;;25.40;18.30;;;12.70;99.90;;;;;;5052432;28;20122;-73
2022/12/22 07:50:24;;;;;;;23.70;19.55;;;12.70;99.90;;;;;;5050696;28;20656;-73
2022/12/22 07:52:58;;;;;;;24.98;19.15;;;12.80;99.90;;;;;;5043173;28;20091;-73
2022/12/22 07:55:25;;;;;;;24.92;18.83;;;12.80;99.90;;;;;;5047417;28;20140;-74
2022/12/22 07:57:54;;;;;;;25.45;19.60;;;12.80;99.90;;;;;;5055191;28;20029;-74
2022/12/22 08:00:21;;;;;;;26.15;19.77;;;12.80;99.90;;;;;;5045002;28;20033;-74
2022/12/22 08:02:53;;;;;;;18.05;12.18;;;12.80;99.90;;;;;;5050194;28;20284;-73
2022/12/22 08:05:19;;;;;;;21.45;14.48;;;13.30;99.90;;;;;;5052494;28;20029;-74
2022/12/22 08:07:47;;;;;;;21.95;14.82;;;13.60;99.90;;;;;;5049765;28;20199;-72
2022/12/22 08:10:12;;;;;;;26.45;17.42;;;13.70;99.90;;;;;;5043347;28;20473;-73
2022/12/22 08:12:38;;;;;;;28.40;19.20;;;13.30;99.90;;;;;;5054254;28;20036;-73
2022/12/22 08:15:05;;;;;;;25.92;18.88;;;13.20;99.90;;;;;;5049544;28;20037;-76
2022/12/22 08:17:31;;;;;;;32.20;19.27;;;13.00;99.90;;;;;;5046230;28;20159;-73
2022/12/22 08:19:56;;;;;;;28.63;18.80;;;13.00;99.90;;;;;;5060251;28;20111;-74
2022/12/22 08:22:22;;;;;;;32.58;21.25;;;12.90;99.90;;;;;;5048717;28;20025;-75
2022/12/22 08:24:52;;;;;;;32.17;21.50;;;12.90;99.90;;;;;;5052206;28;20057;-74
2022/12/22 08:27:28;;;;;;;32.50;21.83;;;12.90;99.90;;;;;;5049130;28;20079;-74
2022/12/22 08:29:57;;;;;;;34.25;21.65;;;12.90;99.90;;;;;;5049536;28;20460;-75
2022/12/22 08:32:23;;;;;;;30.33;20.77;;;12.90;99.90;;;;;;5051977;28;20021;-75
2022/12/22 08:34:50;;;;;;;31.65;22.50;;;13.10;99.90;;;;;;5050877;28;20029;-75
2022/12/22 08:37:19;;;;;;;40.50;25.35;;;13.00;99.90;;;;;;5052651;28;20061;-74
2022/12/22 08:39:49;;;;;;;36.42;25.00;;;12.90;99.90;;;;;;5051981;28;20021;-74
2022/12/22 08:42:18;;;;;;;45.10;27.25;;;12.90;99.90;;;;;;5053792;28;20017;-74
2022/12/22 08:44:46;;;;;;;36.47;25.05;;;12.90;99.90;;;;;;5053057;28;20186;-74
2022/12/22 08:47:11;;;;;;;38.33;24.38;;;12.90;99.90;;;;;;5054329;28;20094;-74
2022/12/22 08:49:37;;;;;;;38.38;23.48;;;12.80;99.90;;;;;;5054189;28;20060;-74
2022/12/22 08:52:03;;;;;;;34.22;24.77;;;12.80;99.90;;;;;;5054146;28;20166;-74
2022/12/22 08:54:29;;;;;;;34.15;24.80;;;12.90;99.90;;;;;;5052863;28;20029;-74
2022/12/22 08:56:55;;;;;;;33.85;24.45;;;12.80;99.90;;;;;;5053658;28;20142;-74
2022/12/22 08:59:20;;;;;;;35.35;24.00;;;12.80;99.90;;;;;;5053918;28;20028;-74
2022/12/22 09:01:49;;;;;;;30.20;23.75;;;12.80;99.90;;;;;;5054018;28;20028;-74
2022/12/22 09:04:17;;;;;;;27.13;20.90;;;12.80;99.90;;;;;;5053887;28;20035;-74
2022/12/22 09:06:42;;;;;;;28.58;21.52;;;13.00;99.90;;;;;;5054218;28;20051;-74
2022/12/22 09:09:10;;;;;;;27.33;20.92;;;12.90;99.90;;;;;;5053806;28;20537;-74
2022/12/22 09:11:36;;;;;;;30.67;22.92;;;12.90;99.90;;;;;;5053465;28;20100;-75
2022/12/22 09:14:03;;;;;;;25.45;17.15;;;12.90;99.90;;;;;;5051797;28;20035;-75
2022/12/22 09:16:29;;;;;;;21.33;15.63;;;13.30;99.90;;;;;;5051717;28;20021;-75
2022/12/22 09:18:55;;;;;;;18.77;14.27;;;13.50;99.90;;;;;;5053592;28;20536;-76
2022/12/22 09:21:22;;;;;;;21.85;15.20;;;13.70;99.90;;;;;;5053477;28;20025;-77
2022/12/22 09:23:48;;;;;;;23.77;14.70;;;13.70;99.90;;;;;;5053420;28;20119;-76
2022/12/22 09:26:17;;;;;;;26.67;14.27;;;13.70;99.90;;;;;;5053180;28;20116;-75
2022/12/22 09:28:42;;;;;;;20.52;15.80;;;13.80;99.90;;;;;;5052295;28;20021;-74
2022/12/22 09:31:09;;;;;;;20.77;15.93;;;13.50;99.90;;;;;;5052823;28;20370;-74
2022/12/22 09:33:35;;;;;;;19.30;15.65;;;13.30;99.90;;;;;;5051826;28;20453;-74
2022/12/22 09:36:09;;;;;;;18.88;14.55;;;13.20;99.90;;;;;;5047495;28;20494;-74
2022/12/22 09:38:36;;;;;;;18.40;14.60;;;13.20;99.90;;;;;;5048627;28;20025;-74
2022/12/22 09:41:26;;;;;;;19.15;14.02;;;13.20;99.90;;;;;;5049579;28;20139;-74
2022/12/22 09:43:55;;;;;;;14.68;13.02;;;13.10;99.90;;;;;;5048976;28;20075;-74
2022/12/22 09:46:24;;;;;;;14.70;12.98;;;13.00;99.90;;;;;;5037719;28;20167;-74
2022/12/22 09:48:52;;;;;;;15.15;12.25;;;13.10;99.90;;;;;;5032433;28;20108;-75
2022/12/22 09:51:18;;;;;;;14.82;11.93;;;13.10;99.90;;;;;;5033353;28;20022;-75
2022/12/22 09:53:46;;;;;;;15.00;11.60;;;13.30;99.90;;;;;;5043416;28;20533;-76
2022/12/22 09:56:14;;;;;;;17.90;11.18;;;13.50;99.90;;;;;;5051502;28;20071;-75
2022/12/22 09:58:41;;;;;;;18.45;13.48;;;13.70;99.90;;;;;;5048970;28;20561;-75
2022/12/22 10:01:24;;;;;;;14.90;11.88;;;13.50;99.90;;;;;;5048982;28;20025;-75
2022/12/22 10:04:00;;;;;;;19.52;12.38;;;13.50;99.90;;;;;;5048820;28;20053;-74
2022/12/22 10:06:41;;;;;;;14.20;10.93;;;13.60;99.90;;;;;;5043569;28;20033;-75
2022/12/22 10:09:18;;;;;;;16.90;11.38;;;13.70;99.90;;;;;;5049920;28;20057;-79
2022/12/22 10:11:59;;;;;;;19.30;12.27;;;13.80;99.90;;;;;;5051252;28;20079;-74
2022/12/22 10:14:31;;;;;;;19.65;9.43;;;13.70;99.90;;;;;;5052589;28;20029;-74
2022/12/22 10:17:17;;;;;;;18.80;10.23;;;13.90;99.90;;;;;;5052350;28;20029;-75
2022/12/22 10:19:43;;;;;;;18.02;11.82;;;14.00;99.90;;;;;;5052520;28;20021;-75
2022/12/22 10:22:27;;;;;;;17.17;13.02;;;13.90;99.90;;;;;;5052439;28;20070;-76
2022/12/22 10:24:54;;;;;;;21.95;14.35;;;13.90;99.90;;;;;;5052218;28;20025;-75
2022/12/22 10:27:22;;;;;;;27.63;19.13;;;13.90;99.90;;;;;;5052780;28;20021;-74
2022/12/22 10:29:48;;;;;;;23.20;16.02;;;13.80;99.90;;;;;;5051104;28;20029;-74
2022/12/22 10:32:17;;;;;;;20.02;10.52;;;13.80;99.90;;;;;;5052517;28;20478;-74
2022/12/22 10:35:05;;;;;;;14.73;9.40;;;13.90;99.90;;;;;;5052342;28;20055;-74
2022/12/22 10:37:40;;;;;;;19.05;9.85;;;14.00;99.90;;;;;;5051123;28;20457;-74
2022/12/22 10:40:18;;;;;;;21.35;14.02;;;14.20;99.90;;;;;;5049717;28;20502;-69
2022/12/22 10:42:54;;;;;;;24.90;16.13;;;14.00;99.90;;;;;;5047737;28;20071;-72
2022/12/22 10:45:24;;;;;;;20.95;17.05;;;14.10;99.90;;;;;;5047673;28;20095;-74
2022/12/22 10:47:53;;;;;;;25.83;17.98;;;14.10;99.90;;;;;;5050288;28;20021;-74
2022/12/22 10:50:20;;;;;;;27.90;20.13;;;14.20;99.90;;;;;;5042269;28;20029;-75
2022/12/22 10:52:54;;;;;;;26.02;19.10;;;13.90;99.90;;;;;;5041452;28;20029;-76
2022/12/22 10:55:27;;;;;;;26.23;21.67;;;13.70;99.90;;;;;;5047047;28;20111;-76
2022/12/22 10:58:08;;;;;;;21.85;18.67;;;13.50;99.90;;;;;;5053333;28;20060;-75
2022/12/22 11:00:35;;;;;;;23.05;16.52;;;13.70;99.90;;;;;;5050984;28;20075;-74
2022/12/22 11:03:02;;;;;;;23.13;17.42;;;13.70;99.90;;;;;;5052188;28;20063;-73
2022/12/22 11:05:29;;;;;;;25.40;17.33;;;13.50;99.90;;;;;;5054727;28;20069;-74
2022/12/22 11:07:59;;;;;;;24.55;17.35;;;13.50;99.90;;;;;;5042755;28;20021;-70
2022/12/22 11:10:33;;;;;;;22.92;16.73;;;13.60;99.90;;;;;;5036361;28;20021;-70
2022/12/22 11:13:05;;;;;;;32.38;16.67;;;13.60;99.90;;;;;;5047134;28;20028;-73
2022/12/22 11:15:47;;;;;;;30.25;14.70;;;13.70;99.90;;;;;;5044910;28;20082;-73
2022/12/22 11:18:20;;;;;;;26.05;14.20;;;13.80;99.90;;;;;;5051928;28;20770;-72
2022/12/22 11:21:13;;;;;;;18.30;14.60;;;13.90;99.90;;;;;;5047463;28;20071;-72
2022/12/22 11:23:58;;;;;;;;;;;13.80;99.90;;;;;;5050112;28;20114;-72
2022/12/22 11:26:35;;;;;;;23.30;13.00;;;13.90;99.90;;;;;;5049058;28;19939;-74
2022/12/22 11:29:09;;;;;;;20.80;13.98;;;14.00;99.90;;;;;;5053194;28;20021;-73
2022/12/22 11:31:50;;;;;;;24.70;13.52;;;14.10;99.90;;;;;;5050362;28;20025;-72
2022/12/22 11:34:37;;;;;;;19.43;12.33;;;14.10;99.90;;;;;;5048985;28;20031;-73
2022/12/22 11:37:26;;;;;;;17.58;12.13;;;13.90;99.90;;;;;;5052699;28;20293;-72
2022/12/22 11:40:04;;;;;;;18.88;12.68;;;13.90;99.90;;;;;;5046738;28;20032;-75
2022/12/22 11:42:48;;;;;;;25.45;10.98;;;13.90;99.90;;;;;;5046789;28;20052;-70
2022/12/22 11:45:14;;;;;;;22.95;11.15;;;14.00;99.90;;;;;;5050012;28;20037;-71
2022/12/22 11:47:48;;;;;;;17.23;9.68;;;14.00;99.90;;;;;;5047053;28;20052;-73
2022/12/22 11:50:27;;;;;;;22.15;10.05;;;14.00;99.90;;;;;;5054332;28;20041;-72
2022/12/22 11:52:56;;;;;;;21.23;9.63;;;14.00;99.90;;;;;;5045636;28;20032;-69
2022/12/22 11:55:36;;;;;;;17.73;9.13;;;14.20;98.50;;;;;;5049105;28;20596;-69
2022/12/22 11:58:16;;;;;;;19.85;8.65;;;14.20;97.80;;;;;;5052232;28;20025;-70
2022/12/22 12:00:52;;;;;;;18.00;8.15;;;14.20;97.20;;;;;;5054415;28;20090;-69
2022/12/22 12:03:29;;;;;;;14.20;7.63;;;14.10;97.40;;;;;;5050664;28;20104;-69
2022/12/22 12:06:06;;;;;;;13.50;7.15;;;14.00;97.20;;;;;;5049647;28;20056;-70
2022/12/22 12:08:45;;;;;;;15.55;6.97;;;14.00;97.10;;;;;;5048168;28;20059;-69
2022/12/22 12:11:26;;;;;;;16.58;7.65;;;14.10;97.90;;;;;;5050640;28;20021;-70
2022/12/22 12:14:21;;;;;;;17.73;8.10;;;14.00;98.00;;;;;;5041144;28;20075;-68
2022/12/22 12:17:13;;;;;;;25.48;10.25;;;14.10;98.00;;;;;;5048737;28;20036;-69
2022/12/22 12:20:14;;;;;;;16.75;9.55;;;14.10;99.50;;;;;;5040374;28;20035;-69
2022/12/22 12:22:52;;;;;;;19.13;9.27;;;14.20;99.90;;;;;;5041085;28;20041;-69
2022/12/22 12:25:31;;;;;;;20.77;11.05;;;14.10;99.90;;;;;;5038252;28;20126;-69
2022/12/22 12:28:33;;;;;;;19.63;12.65;;;14.20;99.90;;;;;;5049876;28;20071;-69
2022/12/22 12:31:00;;;;;;;23.63;13.48;;;14.30;99.90;;;;;;5046775;28;20060;-69
2022/12/22 12:33:44;;;;;;;19.83;12.93;;;14.30;99.90;;;;;;5049023;28;20051;-70
2022/12/22 12:36:49;;;;;;;17.95;14.82;;;14.30;99.90;;;;;;5039366;28;20025;-69
2022/12/22 12:39:30;;;;;;;20.50;14.88;;;14.40;99.90;;;;;;5037652;28;20058;-70
2022/12/22 12:42:01;;;;;;;20.27;13.43;;;14.40;99.90;;;;;;5040211;28;20032;-69
2022/12/22 12:44:32;;;;;;;14.75;12.90;;;14.30;99.90;;;;;;5041873;28;20045;-69
2022/12/22 12:47:24;;;;;;;17.23;13.18;;;14.40;99.90;;;;;;5047136;28;20070;-69
2022/12/22 12:49:55;;;;;;;17.55;12.00;;;14.30;99.90;;;;;;5038039;28;20108;-69
2022/12/22 12:52:39;;;;;;;15.93;11.63;;;14.40;99.90;;;;;;5043600;28;20017;-69
2022/12/22 12:55:28;;;;;;;14.00;9.68;;;14.30;99.90;;;;;;5037928;28;20117;-69
2022/12/22 12:57:54;;;;;;;14.45;9.00;;;14.30;99.90;;;;;;5040813;28;20048;-67
2022/12/22 13:00:32;;;;;;;24.35;9.40;;;15.00;99.90;;;;;;5032578;28;22123;-72
2022/12/22 13:03:01;;;;;;;17.65;9.38;;;14.70;99.90;;;;;;5033912;28;20037;-72
2022/12/22 13:05:32;;;;;;;16.25;7.85;;;14.50;99.90;;;;;;5038789;28;20890;-72
2022/12/22 13:08:06;;;;;;;13.43;7.43;;;14.60;99.90;;;;;;5046072;28;20033;-72
2022/12/22 13:10:41;;;;;;;14.13;7.15;;;14.50;99.90;;;;;;5031648;28;20049;-72
2022/12/22 13:13:38;;;;;;;10.82;6.85;;;14.60;99.90;;;;;;5044372;28;20029;-72
2022/12/22 13:16:04;;;;;;;12.65;7.72;;;14.50;99.90;;;;;;5035700;28;20044;-72
2022/12/22 13:18:32;;;;;;;11.93;6.03;;;14.50;99.90;;;;;;5038346;28;20029;-72
2022/12/22 13:21:05;;;;;;;14.27;6.22;;;14.30;99.90;;;;;;5038395;28;20568;-71
2022/12/22 13:23:42;;;;;;;9.00;5.13;;;14.30;99.90;;;;;;5036952;28;20029;-73
2022/12/22 13:26:19;;;;;;;7.20;4.78;;;14.30;99.90;;;;;;5039935;28;20052;-73
2022/12/22 13:28:50;;;;;;;11.68;4.65;;;14.20;99.90;;;;;;5048157;28;20032;-73
2022/12/22 13:31:23;;;;;;;5.60;4.53;;;14.10;99.90;;;;;;5049087;28;20025;-73
2022/12/22 13:34:27;;;;;;;6.95;4.45;;;14.10;99.90;;;;;;5043829;28;20051;-73
2022/12/22 13:36:54;;;;;;;7.00;4.18;;;14.10;99.90;;;;;;5034286;28;20120;-73
2022/12/22 13:39:20;;;;;;;12.13;4.03;;;14.00;99.90;;;;;;5057283;28;20021;-73
2022/12/22 13:41:48;;;;;;;6.03;3.88;;;14.20;99.90;;;;;;5038684;28;20106;-74
2022/12/22 13:44:32;;;;;;;8.13;3.65;;;14.00;99.90;;;;;;5040527;28;20059;-73
2022/12/22 13:47:06;;;;;;;6.47;3.10;;;13.90;99.90;;;;;;5043837;28;20103;-73
2022/12/22 13:49:34;;;;;;;6.22;2.85;;;13.80;99.90;;;;;;5044983;28;21140;-74
2022/12/22 13:52:01;;;;;;;6.95;3.63;;;13.90;99.90;;;;;;5045759;28;20055;-74
2022/12/22 13:54:32;;;;;;;5.20;3.90;;;13.80;99.90;;;;;;5040848;28;20017;-75
2022/12/22 13:56:59;;;;;;;9.27;3.35;;;13.70;99.90;;;;;;5041152;28;20033;-74
2022/12/22 13:59:29;;;;;;;6.57;3.20;;;13.80;99.90;;;;;;5046212;28;20074;-74
2022/12/22 14:01:59;;;;;;;4.28;2.97;;;13.90;99.90;;;;;;5040519;28;20061;-74
2022/12/22 14:04:25;;;;;;;5.25;3.15;;;13.80;99.90;;;;;;5043031;28;20033;-74
2022/12/22 14:06:51;;;;;;;5.97;3.60;;;13.80;99.90;;;;;;5041983;28;20033;-74
2022/12/22 14:09:26;;;;;;;6.72;3.78;;;13.90;99.90;;;;;;5047391;28;20032;-74
2022/12/22 14:12:02;;;;;;;5.88;3.17;;;13.90;99.90;;;;;;5044377;28;20067;-74
2022/12/22 14:14:33;;;;;;;7.68;3.40;;;13.90;99.90;;;;;;5032943;28;20504;-75
2022/12/22 14:17:00;;;;;;;6.50;3.00;;;14.00;99.90;;;;;;5040886;28;20089;-76
2022/12/22 14:19:31;;;;;;;5.32;4.13;;;14.10;99.90;;;;;;5037327;28;20039;-75
2022/12/22 14:22:21;;;;;;;11.35;3.97;;;13.90;99.90;;;;;;5034886;28;20021;-76
2022/12/22 14:24:56;;;;;;;9.13;3.47;;;14.00;99.90;;;;;;5033799;28;20103;-77
2022/12/22 14:27:44;;;;;;;8.75;3.42;;;14.00;99.90;;;;;;5042867;28;20509;-77
2022/12/22 14:30:22;;;;;;;6.38;3.65;;;13.90;99.90;;;;;;5041959;28;20505;-75
2022/12/22 14:32:50;;;;;;;6.28;3.55;;;13.70;99.90;;;;;;5039190;28;20049;-76
2022/12/22 14:35:21;;;;;;;5.93;3.20;;;13.80;99.90;;;;;;5039846;28;20025;-75
2022/12/22 14:37:48;;;;;;;6.43;3.42;;;13.70;99.90;;;;;;5040883;28;20064;-76
2022/12/22 14:40:29;;;;;;;6.32;3.05;;;13.70;99.90;;;;;;5038705;28;20474;-75
2022/12/22 14:42:55;;;;;;;7.28;3.30;;;13.80;99.90;;;;;;5040799;28;20116;-76
2022/12/22 14:45:22;;;;;;;6.75;3.63;;;14.00;99.90;;;;;;5037233;28;20041;-75
2022/12/22 14:47:47;;;;;;;7.65;3.80;;;13.90;99.90;;;;;;5037285;28;20841;-75
2022/12/22 14:50:18;;;;;;;8.27;3.30;;;13.80;99.90;;;;;;5035930;28;20060;-75
2022/12/22 14:52:48;;;;;;;7.85;3.58;;;13.80;99.90;;;;;;5039736;28;20049;-77
2022/12/22 14:55:30;;;;;;;7.32;3.78;;;13.90;99.90;;;;;;5033595;28;20033;-75
2022/12/22 14:58:19;;;;;;;10.80;3.67;;;13.80;99.90;;;;;;5034352;28;20109;-77
2022/12/22 15:00:46;;;;;;;7.75;4.30;;;13.90;99.90;;;;;;5035794;28;20482;-77
2022/12/22 15:03:32;;;;;;;11.63;4.38;;;13.90;99.90;;;;;;5039644;28;20017;-78
2022/12/22 15:06:26;;;;;;;10.05;4.05;;;13.90;99.90;;;;;;5035508;28;20505;-76
2022/12/22 15:09:12;;;;;;;9.50;4.93;;;13.90;99.90;;;;;;5035060;28;20108;-77
2022/12/22 15:11:48;;;;;;;11.40;5.03;;;13.80;99.90;;;;;;5034644;28;20033;-76
2022/12/22 15:14:22;;;;;;;9.65;4.70;;;13.80;99.90;;;;;;5035488;28;20036;-79
2022/12/22 15:16:48;;;;;;;8.35;4.18;;;13.80;99.90;;;;;;5036378;28;20029;-76
2022/12/22 15:19:16;;;;;;;10.10;5.30;;;13.80;99.90;;;;;;5046289;28;21001;-78
2022/12/22 15:21:42;;;;;;;9.15;4.82;;;13.80;99.90;;;;;;5049235;28;20021;-78
2022/12/22 15:24:14;;;;;;;14.38;5.93;;;13.70;99.90;;;;;;5049516;28;20048;-75
2022/12/22 15:26:40;;;;;;;11.60;6.07;;;13.70;99.90;;;;;;5040577;28;20207;-77
2022/12/22 15:29:06;;;;;;;15.07;5.72;;;13.80;99.90;;;;;;5048565;28;20025;-76
2022/12/22 15:31:32;;;;;;;13.23;5.63;;;13.70;99.90;;;;;;5047248;28;20378;-76
2022/12/22 15:34:03;;;;;;;18.30;6.57;;;13.80;99.90;;;;;;5041590;28;20085;-77
2022/12/22 15:36:29;;;;;;;19.70;6.22;;;13.80;99.90;;;;;;5049860;28;20432;-76
2022/12/22 15:38:55;;;;;;;14.85;5.68;;;13.60;99.90;;;;;;5053385;28;20469;-77
2022/12/22 15:41:20;;;;;;;16.10;6.57;;;13.70;99.90;;;;;;5048470;28;20103;-76
2022/12/22 15:43:46;;;;;;;12.73;5.60;;;13.70;99.90;;;;;;5049309;28;20079;-76
2022/12/22 15:46:20;;;;;;;17.75;6.80;;;13.70;99.90;;;;;;5043669;28;20082;-71
2022/12/22 15:48:46;;;;;;;21.67;6.88;;;13.70;99.90;;;;;;5056275;28;20059;-76
2022/12/22 15:51:21;;;;;;;16.92;6.35;;;13.70;99.90;;;;;;5042520;28;20493;-75
2022/12/22 15:53:47;;;;;;;19.85;7.30;;;13.70;99.90;;;;;;5054822;28;20478;-76
2022/12/22 15:56:18;;;;;;;18.33;6.60;;;13.60;99.90;;;;;;5050689;28;20083;-76
2022/12/22 15:58:43;;;;;;;17.83;5.25;;;13.90;99.90;;;;;;5048984;28;20076;-76
2022/12/22 16:01:11;;;;;;;20.88;5.72;;;14.10;99.90;;;;;;5042790;28;20018;-75
2022/12/22 16:03:37;;;;;;;20.77;6.05;;;14.10;99.90;;;;;;5048982;28;20355;-76
2022/12/22 16:06:03;;;;;;;18.80;6.25;;;14.10;99.90;;;;;;5046104;28;20119;-75
2022/12/22 16:08:32;;;;;;;20.38;4.85;;;14.20;99.90;;;;;;5048163;28;20020;-75
2022/12/22 16:10:58;;;;;;;18.95;6.18;;;14.20;99.90;;;;;;5044188;28;20036;-75
2022/12/22 16:13:26;;;;;;;18.77;5.78;;;14.20;99.90;;;;;;5042726;28;20017;-75
2022/12/22 16:15:52;;;;;;;21.92;5.60;;;14.40;99.90;;;;;;5046149;28;20430;-75
2022/12/22 16:18:18;;;;;;;13.27;4.80;;;14.40;99.90;;;;;;5048979;28;20028;-76
2022/12/22 16:20:44;;;;;;;17.27;5.45;;;14.60;99.90;;;;;;5044422;28;20079;-76
2022/12/22 16:23:15;;;;;;;22.60;6.57;;;14.70;99.90;;;;;;5055607;28;20090;-76
2022/12/22 16:25:43;;;;;;;35.27;8.67;;;14.70;99.90;;;;;;5056427;28;20044;-75
2022/12/22 16:28:19;;;;;;;30.77;8.63;;;14.90;99.90;;;;;;5048840;28;20104;-76